Latest Weather Observations for Perth

IDW60901

Issued at 11:55 pm WST Wednesday 16 April 2014 (issued every 10 minutes, with the page automatically refreshed every 10 minutes)

About weather observations | Map of Perth area stations | Latest observations for Perth area | Other Formats
Station Details ID: 009225 Name: PERTH METRO Lat: -31.92 Lon: 115.87 Height: 24.9 m
Data from the previous 72 hours. | See also: Recent months at Perth
Date/Time
WST
Tmp

°C
App
Tmp
°C
Dew
Point
°C
Rel
Hum
%
Delta-T

°C
Wind Press
QNH
hPa
Press
MSL
hPa
Rain
since
9 am
mm
Dir
 
Spd
km/h
Gust
km/h
Spd
kts
Gust
kts
16/11:30pm 16.5 15.4 11.9 74 2.5 S 9 13 5 7 1020.4 - 0.0
16/11:00pm 16.9 15.8 12.0 73 2.7 S 9 15 5 8 1020.5 - 0.0
16/10:30pm 17.3 16.2 12.0 71 2.9 S 9 15 5 8 1020.6 - 0.0
16/10:00pm 17.6 16.5 12.1 70 3.0 S 9 17 5 9 1020.7 - 0.0
16/09:30pm 17.8 16.3 11.8 68 3.3 S 11 17 6 9 1020.6 - 0.0
16/09:00pm 18.0 16.5 11.8 67 3.4 S 11 19 6 10 1020.5 1020.5 0.0
16/08:30pm 18.4 16.9 11.9 66 3.6 S 11 19 6 10 1020.4 - 0.0
16/08:00pm 18.7 17.7 12.2 66 3.6 S 9 22 5 12 1020.3 - 0.0
16/07:30pm 18.7 18.2 12.5 67 3.5 S 7 13 4 7 1020.1 - 0.0
16/07:00pm 19.0 18.1 12.7 67 3.5 SSW 9 15 5 8 1020.1 - 0.0
16/06:30pm 19.4 18.2 12.9 66 3.7 SW 11 19 6 10 1020.0 - 0.0
16/06:00pm 19.5 18.0 13.0 66 3.7 SW 13 20 7 11 1019.8 1019.8 0.0
16/05:30pm 20.0 18.2 13.2 65 3.9 SW 15 26 8 14 1019.8 - 0.0
16/05:00pm 20.9 19.1 13.4 62 4.3 SSW 15 26 8 14 1019.8 - 0.0
16/04:30pm 21.6 19.5 13.5 60 4.7 SSW 17 26 9 14 1019.8 - 0.0
16/04:00pm 22.4 20.4 14.0 59 4.9 SSW 17 26 9 14 1019.8 - 0.0
16/03:30pm 23.1 21.7 14.4 58 5.1 SW 15 24 8 13 1019.9 - 0.0
16/03:00pm 23.7 22.2 15.2 59 5.1 SW 17 24 9 13 1020.0 1020.0 0.0
16/02:30pm 23.8 23.0 15.0 57 5.3 SSW 13 20 7 11 1020.1 - 0.0
16/02:00pm 23.8 23.1 15.3 59 5.1 S 13 20 7 11 1020.2 - 0.0
16/01:30pm 23.1 22.2 14.9 60 4.9 SSW 13 20 7 11 1020.4 - 0.0
16/01:00pm 24.3 24.0 14.4 54 5.9 S 9 15 5 8 1020.7 - 0.0
16/12:30pm 23.3 23.4 13.8 55 5.5 SSW 6 11 3 6 1021.1 - 0.0
16/12:00pm 23.1 23.2 13.8 55 5.4 SW 6 11 3 6 1021.6 1021.6 0.0
16/11:30am 22.9 23.0 14.5 59 5.0 S 7 11 4 6 1022.0 - 0.0
16/11:00am 23.2 23.5 14.5 58 5.1 N 6 9 3 5 1022.5 - 0.0
16/10:30am 21.7 21.8 14.4 63 4.3 ENE 7 13 4 7 1022.8 - 0.0
16/10:00am 20.9 21.5 15.2 70 3.4 ESE 6 9 3 5 1023.1 - 0.0
16/09:30am 19.8 20.1 14.4 71 3.1 E 6 9 3 5 1023.3 - 0.0
16/09:00am 19.1 19.6 15.0 77 2.4 E 6 9 3 5 1023.4 1023.4 0.0
16/08:30am 18.7 19.0 15.0 79 2.2 E 7 11 4 6 1023.4 - 0.0
16/08:00am 18.3 19.0 15.6 84 1.6 NE 6 9 3 5 1023.2 - 0.0
16/07:30am 17.8 19.3 15.6 87 1.3 ESE 2 6 1 3 1022.9 - 0.0
16/07:00am 17.3 18.8 15.6 90 1.0 E 2 7 1 4 1022.5 - 0.0
16/06:30am 17.0 17.7 15.7 92 0.8 E 6 11 3 6 1022.3 - 0.0
16/06:00am 17.1 19.0 15.8 92 0.8 SE 0 6 0 3 1022.1 1022.1 0.0
16/05:30am 17.9 18.4 16.6 92 0.8 SE 9 15 5 8 1022.1 - 0.0
16/05:00am 18.0 18.9 16.7 92 0.8 SSE 7 11 4 6 1021.9 - 0.0
16/04:30am 18.1 18.2 16.6 91 0.9 S 11 17 6 9 1021.8 - 0.0
16/04:00am 18.1 18.6 16.6 91 0.9 S 9 13 5 7 1021.5 - 0.0
16/03:30am 18.4 18.6 16.7 90 1.0 S 11 17 6 9 1021.5 - 0.0
16/03:00am 18.7 18.4 16.5 87 1.3 S 13 20 7 11 1021.4 1021.4 0.0
16/02:30am 18.5 18.7 16.8 90 1.0 S 11 22 6 12 1021.6 - 0.0
16/02:00am 18.5 18.7 16.8 90 1.0 S 11 22 6 12 1021.8 - 0.0
16/01:30am 19.3 19.4 16.5 84 1.7 S 11 17 6 9 1022.0 - 0.0
16/01:00am 20.0 20.7 16.2 79 2.3 SSE 7 9 4 5 1021.9 - 0.0
16/12:30am 19.9 21.6 16.2 79 2.2 SE 2 6 1 3 1021.9 - 0.0
16/12:00am 19.6 21.6 16.1 80 2.1 SE 0 6 0 3 1021.9 1021.9 0.0
 
Date/Time
WST
Tmp

°C
App
Tmp
°C
Dew
Point
°C
Rel
Hum
%
Delta-T

°C
Wind Press
QNH
hPa
Press
MSL
hPa
Rain
since
9 am
mm
Dir
 
Spd
km/h
Gust
km/h
Spd
kts
Gust
kts
15/11:30pm 20.0 22.0 16.0 78 2.4 CALM 0 0 0 0 1022.1 - 0.0
15/11:00pm 19.8 21.9 16.3 80 2.1 CALM 0 0 0 0 1022.4 - 0.0
15/10:30pm 19.6 21.5 15.7 78 2.3 CALM 0 0 0 0 1022.5 - 0.0
15/10:00pm 20.1 21.7 15.9 77 2.5 SSE 2 7 1 4 1022.6 - 0.0
15/09:30pm 19.7 21.6 15.8 78 2.3 CALM 0 0 0 0 1022.7 - 0.0
15/09:00pm 19.6 21.0 15.5 77 2.4 WSW 2 6 1 3 1022.6 1022.6 0.0
15/08:30pm 20.5 21.0 15.5 73 3.0 SW 7 13 4 7 1022.6 - 0.0
15/08:00pm 20.7 20.8 15.5 72 3.1 SW 9 19 5 10 1022.5 - 0.0
15/07:30pm 21.0 21.1 15.5 71 3.3 SW 9 15 5 8 1022.3 - 0.0
15/07:00pm 21.4 21.3 15.9 71 3.3 SSW 11 19 6 10 1022.2 - 0.0
15/06:30pm 21.6 21.1 15.0 66 3.9 SW 11 20 6 11 1021.9 - 0.0
15/06:00pm 21.6 20.9 14.3 63 4.3 SW 11 17 6 9 1021.7 1021.7 0.0
15/05:30pm 21.5 20.4 14.4 64 4.2 SW 13 19 7 10 1021.6 - 0.0
15/05:00pm 22.2 21.1 14.3 61 4.6 SW 13 22 7 12 1021.4 - 0.0
15/04:30pm 22.5 21.8 14.4 60 4.8 SW 11 19 6 10 1021.4 - 0.0
15/04:00pm 23.2 22.0 13.9 56 5.4 WSW 13 20 7 11 1021.2 - 0.0
15/03:30pm 23.3 21.9 13.5 54 5.7 WSW 13 22 7 12 1021.0 - 0.0
15/03:00pm 24.1 23.1 14.5 55 5.7 SW 13 22 7 12 1021.0 1021.0 0.0
15/02:30pm 23.1 21.2 13.0 53 5.8 WSW 15 26 8 14 1020.9 - 0.0
15/02:00pm 24.0 22.8 12.9 50 6.4 SW 11 20 6 11 1020.8 - 0.0
15/01:30pm 23.2 21.2 13.9 56 5.4 WSW 17 28 9 15 1020.9 - 0.0
15/01:00pm 23.4 21.0 13.8 54 5.6 WSW 19 28 10 15 1021.2 - 0.0
15/12:30pm 24.2 22.2 14.0 53 6.0 WSW 17 24 9 13 1021.3 - 0.0
15/12:00pm 24.8 23.4 14.6 53 6.1 WSW 15 28 8 15 1021.5 1021.5 0.0
15/11:30am 24.2 23.1 15.4 58 5.3 WSW 15 24 8 13 1021.4 - 0.0
15/11:00am 24.1 23.6 14.8 56 5.5 WSW 11 19 6 10 1021.3 - 0.0
15/10:30am 24.5 24.9 15.4 57 5.5 SW 7 11 4 6 1021.2 - 0.0
15/10:00am 23.7 24.6 15.2 59 5.1 SSW 4 11 2 6 1021.3 - 0.0
15/09:30am 22.5 22.7 15.8 66 4.0 WSW 9 15 5 8 1021.3 - 0.0
15/09:00am 22.4 24.0 16.9 71 3.4 N 4 9 2 5 1021.4 1021.4 0.0
15/08:30am 20.8 22.5 18.0 84 1.7 N 6 7 3 4 1021.2 - 0.0
15/08:00am 19.1 22.0 18.3 95 0.5 CALM 0 0 0 0 1021.0 - 0.0
15/07:30am 16.9 19.1 16.4 97 0.3 CALM 0 0 0 0 1020.9 - 0.0
15/07:00am 16.3 18.2 15.8 97 0.3 CALM 0 0 0 0 1020.4 - 0.0
15/06:30am 15.9 17.7 15.4 97 0.3 CALM 0 0 0 0 1020.1 - 0.0
15/06:00am 15.8 17.5 15.2 96 0.3 CALM 0 0 0 0 1019.8 1019.8 0.0
15/05:30am 16.0 17.8 15.4 96 0.3 CALM 0 0 0 0 1019.6 - 0.0
15/05:00am 16.2 18.0 15.6 96 0.4 CALM 0 0 0 0 1019.5 - 0.0
15/04:30am 16.5 18.4 15.7 95 0.5 CALM 0 0 0 0 1019.5 - 0.0
15/04:00am 16.9 18.9 16.1 95 0.5 CALM 0 0 0 0 1019.6 - 0.0
15/03:30am 17.3 19.5 16.5 95 0.5 CALM 0 0 0 0 1019.5 - 0.0
15/03:00am 17.8 20.2 17.0 95 0.5 CALM 0 0 0 0 1019.6 1019.5 0.0
15/02:30am 17.9 20.3 17.1 95 0.5 CALM 0 0 0 0 1019.7 - 0.0
15/02:00am 17.7 20.0 16.7 94 0.6 CALM 0 0 0 0 1019.8 - 0.0
15/01:30am 18.2 20.7 17.2 94 0.6 CALM 0 0 0 0 1019.7 - 0.0
15/01:00am 18.2 20.7 17.2 94 0.6 CALM 0 0 0 0 1019.7 - 0.0
15/12:30am 18.2 20.6 16.9 92 0.8 CALM 0 0 0 0 1019.6 - 0.0
15/12:00am 18.7 21.2 17.2 91 0.9 CALM 0 0 0 0 1019.5 1019.4 0.0
 
Date/Time
WST
Tmp

°C
App
Tmp
°C
Dew
Point
°C
Rel
Hum
%
Delta-T

°C
Wind Press
QNH
hPa
Press
MSL
hPa
Rain
since
9 am
mm
Dir
 
Spd
km/h
Gust
km/h
Spd
kts
Gust
kts
14/11:30pm 19.0 21.5 17.3 90 1.0 CALM 0 0 0 0 1019.5 - 0.0
14/11:00pm 19.6 22.2 17.6 88 1.2 CALM 0 0 0 0 1019.8 - 0.0
14/10:30pm 20.7 22.6 17.7 83 1.8 SW 4 7 2 4 1020.0 - 0.0
14/10:00pm 21.0 23.1 18.0 83 1.9 WSW 4 9 2 5 1020.1 - 0.0
14/09:30pm 21.2 23.7 18.2 83 1.9 WSW 2 6 1 3 1020.1 - 0.0
14/09:00pm 21.6 23.3 18.4 82 2.0 SW 7 9 4 5 1020.1 1020.1 0.0
14/08:30pm 21.8 23.5 18.4 81 2.1 SW 7 13 4 7 1020.1 - 0.0
14/08:00pm 21.9 23.2 18.5 81 2.1 SW 9 15 5 8 1019.9 - 0.0
14/07:30pm 22.2 24.1 19.0 82 2.0 SW 7 11 4 6 1019.7 - 0.0
14/07:00pm 22.4 23.9 18.8 80 2.3 SW 9 15 5 8 1019.5 - 0.0
14/06:30pm 22.4 23.9 18.8 80 2.3 WSW 9 15 5 8 1019.4 - 0.0
14/06:00pm 22.9 24.0 18.0 74 3.1 SW 9 15 5 8 1019.0 1018.9 0.0
14/05:30pm 24.2 25.2 17.7 67 4.1 WSW 9 15 5 8 1018.7 - 0.0
14/05:00pm 26.0 27.4 17.9 61 5.1 WSW 7 13 4 7 1018.4 - 0.0
14/04:30pm 26.4 27.3 16.6 55 6.1 W 7 13 4 7 1018.3 - 0.0
14/04:00pm 26.7 27.7 16.9 55 6.1 W 7 13 4 7 1018.3 - 0.0
14/03:30pm 26.6 26.8 17.7 58 5.6 WSW 13 19 7 10 1018.3 - 0.0
14/03:00pm 27.3 28.2 18.3 58 5.7 WSW 11 19 6 10 1018.4 1018.3 0.0
14/02:30pm 27.2 27.9 17.9 56 5.9 SW 11 17 6 9 1018.3 - 0.0
14/02:00pm 27.7 28.9 19.0 59 5.6 WSW 11 20 6 11 1018.3 - 0.0
14/01:30pm 27.1 27.2 18.4 59 5.5 WSW 15 22 8 12 1018.3 - 0.0
14/01:00pm 27.1 28.0 19.2 62 5.1 WSW 13 22 7 12 1018.6 - 0.0
14/12:30pm 27.2 28.0 19.0 61 5.3 W 13 20 7 11 1019.0 - 0.0
14/12:00pm 27.7 28.3 18.7 58 5.8 W 13 19 7 10 1019.4 1019.3 0.0
14/11:30am 28.4 30.2 19.6 59 5.7 W 9 17 5 9 1019.4 - 0.0
14/11:00am 28.2 29.2 16.8 50 7.1 NNW 7 15 4 8 1019.5 - 0.0
14/10:30am 27.1 27.3 16.7 53 6.5 NNW 11 17 6 9 1019.5 - 0.0
14/10:00am 25.9 26.0 15.6 53 6.3 N 9 13 5 7 1019.6 - 0.0
14/09:30am 24.5 24.1 15.1 55 5.6 N 11 17 6 9 1019.8 - 0.0
14/09:00am 23.6 24.3 15.6 61 4.8 NNE 6 9 3 5 1020.0 1020.0 0.0
14/08:30am 22.0 22.2 15.8 68 3.7 NNE 9 13 5 7 1020.1 - 0.0
14/08:00am 21.1 21.5 16.3 74 2.9 NE 9 17 5 9 1019.5 - 0.0
14/07:30am 18.5 19.6 16.5 88 1.2 NNE 6 9 3 5 1019.2 - 0.0
14/07:00am 16.5 18.2 15.2 92 0.8 CALM 0 0 0 0 1019.0 - 0.0
14/06:30am 16.3 17.5 14.8 91 0.9 NNE 2 6 1 3 1018.8 - 0.0
14/06:00am 16.5 17.7 14.9 90 0.9 NNE 2 7 1 4 1018.6 1018.5 0.0
14/05:30am 16.6 18.2 14.8 89 1.0 CALM 0 0 0 0 1018.3 - 0.0
14/05:00am 17.2 18.9 15.2 88 1.2 CALM 0 0 0 0 1018.2 - 0.0
14/04:30am 17.8 19.2 15.4 86 1.4 NNE 2 6 1 3 1018.0 - 0.0
14/04:00am 18.2 19.2 15.3 83 1.7 NNE 4 6 2 3 1018.0 - 0.0
14/03:30am 19.6 19.8 14.8 74 2.8 N 7 9 4 5 1017.9 - 0.0
14/03:00am 20.3 20.3 15.1 72 3.1 NNE 9 20 5 11 1017.9 1017.8 0.0
14/02:30am 18.5 19.2 15.7 84 1.7 NE 6 13 3 7 1018.1 - 0.0
14/02:00am 17.6 19.5 15.8 89 1.1 CALM 0 0 0 0 1018.2 - 0.0
14/01:30am 18.0 20.1 16.3 90 1.0 CALM 0 0 0 0 1018.3 - 0.0
14/01:00am 18.2 20.3 16.2 88 1.2 CALM 0 0 0 0 1018.5 - 0.0
14/12:30am 18.5 20.6 16.3 87 1.3 CALM 0 0 0 0 1018.7 - 0.0
14/12:00am 19.0 21.2 16.4 85 1.6 CALM 0 0 0 0 1018.8 1018.7 0.0

Latest Capital City Observations: Canberra | Sydney | Melbourne | Brisbane | Adelaide | Perth | Hobart | Darwin

Other Formats:

Comma delimited format used in spreadsheet applications
http://www.bom.gov.au/fwo/IDW60901/IDW60901.94608.axf

JavaScript Object Notation format (JSON) in row-major order
http://www.bom.gov.au/fwo/IDW60901/IDW60901.94608.json